createdAt,value
2017-07-17T00:01:21.100Z,99.90
2017-07-17T00:03:48.696Z,99.90
2017-07-17T00:06:17.041Z,99.90
2017-07-17T00:08:44.669Z,99.90
2017-07-17T00:11:12.330Z,99.90
2017-07-17T00:13:39.924Z,99.90
2017-07-17T00:16:07.508Z,99.90
2017-07-17T00:18:35.076Z,99.90
2017-07-17T00:21:03.438Z,99.90
2017-07-17T00:23:31.054Z,99.90
2017-07-17T00:25:58.626Z,99.90
2017-07-17T00:28:26.190Z,99.90
2017-07-17T00:30:53.806Z,99.90
2017-07-17T00:33:22.141Z,99.90
2017-07-17T00:35:49.717Z,99.90
2017-07-17T00:38:17.339Z,99.90
2017-07-17T00:40:45.796Z,99.90
2017-07-17T00:43:14.127Z,99.90
2017-07-17T00:45:41.713Z,99.90
2017-07-17T00:48:09.299Z,99.90
2017-07-17T00:50:37.619Z,99.90
2017-07-17T00:53:05.215Z,99.90
2017-07-17T00:55:32.803Z,99.90
2017-07-17T00:58:01.138Z,99.90
2017-07-17T01:00:28.836Z,99.90
2017-07-17T01:02:56.427Z,99.90
2017-07-17T01:05:23.995Z,99.90
2017-07-17T01:07:51.633Z,99.90
2017-07-17T01:10:19.993Z,99.90
2017-07-17T01:12:47.575Z,99.90
2017-07-17T01:15:15.969Z,99.90
2017-07-17T01:17:44.294Z,99.90
2017-07-17T01:20:11.860Z,99.90
2017-07-17T01:22:40.202Z,99.90
2017-07-17T01:25:07.764Z,99.90
2017-07-17T01:27:35.347Z,99.90
2017-07-17T01:30:02.911Z,99.90
2017-07-17T01:32:30.599Z,99.90
2017-07-17T01:34:59.042Z,99.90
2017-07-17T01:37:26.614Z,99.90
2017-07-17T01:39:54.192Z,99.90
2017-07-17T01:42:21.765Z,99.90
2017-07-17T01:44:49.343Z,99.90
2017-07-17T01:47:16.915Z,99.90
2017-07-17T01:49:44.497Z,99.90
2017-07-17T01:52:12.825Z,99.90
2017-07-17T01:54:40.402Z,99.90
2017-07-17T01:57:07.976Z,99.90
2017-07-17T01:59:35.533Z,99.90
2017-07-17T02:02:03.110Z,99.90
2017-07-17T02:04:31.475Z,99.90
2017-07-17T02:06:59.030Z,99.90
2017-07-17T02:09:26.622Z,99.90
2017-07-17T02:11:54.950Z,99.90
2017-07-17T02:14:22.528Z,99.90
2017-07-17T02:16:51.183Z,99.90
2017-07-17T02:19:18.750Z,99.90
2017-07-17T02:21:46.339Z,99.90
2017-07-17T02:24:13.898Z,99.90
2017-07-17T02:26:41.501Z,99.90
2017-07-17T02:29:09.815Z,99.90
2017-07-17T02:31:37.379Z,99.90
2017-07-17T02:34:05.067Z,99.90
2017-07-17T02:36:32.626Z,99.90
2017-07-17T02:39:00.407Z,99.90
2017-07-17T02:41:27.975Z,99.90
2017-07-17T02:43:55.554Z,99.90
2017-07-17T02:46:23.154Z,99.90
2017-07-17T02:48:50.730Z,99.90
2017-07-17T02:51:18.299Z,99.90
2017-07-17T02:53:45.885Z,99.90
2017-07-17T02:56:13.460Z,99.90
2017-07-17T02:58:41.050Z,99.90
2017-07-17T03:01:08.630Z,99.90
2017-07-17T03:03:36.203Z,99.90
2017-07-17T03:06:03.793Z,99.90
2017-07-17T03:08:31.460Z,99.90
2017-07-17T03:10:59.035Z,99.90
2017-07-17T03:13:26.631Z,99.90
2017-07-17T03:15:54.182Z,99.90
2017-07-17T03:18:21.769Z,99.90
2017-07-17T03:20:50.102Z,99.90
2017-07-17T03:23:17.790Z,99.90
2017-07-17T03:25:45.366Z,99.90
2017-07-17T03:28:13.698Z,99.90
2017-07-17T03:30:41.267Z,99.90
2017-07-17T03:33:08.851Z,99.90
2017-07-17T03:35:36.411Z,99.90
2017-07-17T03:38:03.984Z,99.90
2017-07-17T03:40:31.549Z,99.90
2017-07-17T03:42:59.153Z,99.90
2017-07-17T03:45:26.733Z,99.90
2017-07-17T03:47:54.332Z,99.90
2017-07-17T03:50:21.906Z,99.90
2017-07-17T03:52:50.226Z,99.90
2017-07-17T03:55:17.830Z,99.90
2017-07-17T03:57:45.559Z,99.90
2017-07-17T04:00:13.131Z,99.90
2017-07-17T04:02:41.522Z,99.90
2017-07-17T04:05:09.199Z,99.90
2017-07-17T04:07:46.671Z,99.90
2017-07-17T04:10:14.277Z,99.90
2017-07-17T04:12:41.843Z,99.90
2017-07-17T04:15:09.401Z,99.90
2017-07-17T04:17:37.001Z,99.90
2017-07-17T04:20:04.562Z,99.90
2017-07-17T04:22:32.142Z,99.90
2017-07-17T04:25:00.486Z,99.90
2017-07-17T04:27:28.042Z,99.90
2017-07-17T04:29:55.631Z,99.90
2017-07-17T04:32:23.203Z,99.90
2017-07-17T04:34:51.548Z,99.90
2017-07-17T04:37:19.252Z,99.90
2017-07-17T04:39:46.836Z,99.90
2017-07-17T04:42:14.431Z,99.90
2017-07-17T04:44:42.114Z,99.90
2017-07-17T04:47:09.691Z,99.90
2017-07-17T04:49:37.267Z,99.90
2017-07-17T04:52:05.599Z,99.90
2017-07-17T04:54:33.170Z,99.90
2017-07-17T04:57:00.729Z,99.90
2017-07-17T04:59:28.318Z,99.90
2017-07-17T05:01:56.007Z,99.90
2017-07-17T05:04:23.585Z,99.90
2017-07-17T05:06:51.179Z,99.90
2017-07-17T05:09:18.769Z,99.90
2017-07-17T05:11:46.519Z,99.90
2017-07-17T05:14:14.200Z,99.70
2017-07-17T05:16:41.774Z,99.90
2017-07-17T05:19:10.217Z,99.90
2017-07-17T05:21:38.010Z,99.90
2017-07-17T05:24:05.590Z,99.50
2017-07-17T05:26:33.219Z,99.80
2017-07-17T05:29:00.785Z,99.90
2017-07-17T05:31:28.376Z,99.90
2017-07-17T05:33:56.704Z,99.90
2017-07-17T05:36:24.297Z,99.90
2017-07-17T05:38:51.900Z,99.90
2017-07-17T05:41:19.452Z,99.90
2017-07-17T05:43:47.810Z,99.90
2017-07-17T05:46:15.370Z,99.90
2017-07-17T05:48:42.971Z,99.90
2017-07-17T05:51:10.537Z,99.90
2017-07-17T05:53:38.120Z,99.90
2017-07-17T05:56:05.692Z,99.90
2017-07-17T05:58:33.299Z,99.90
2017-07-17T06:01:01.665Z,99.90
2017-07-17T06:03:29.231Z,99.90
2017-07-17T06:05:56.799Z,99.90
2017-07-17T06:08:25.154Z,99.90
2017-07-17T06:10:52.725Z,99.90
2017-07-17T06:13:20.295Z,99.90
2017-07-17T06:15:47.872Z,99.90
2017-07-17T06:18:16.322Z,99.90
2017-07-17T06:20:43.919Z,99.90
2017-07-17T06:23:12.343Z,99.90
2017-07-17T06:25:39.980Z,99.90
2017-07-17T06:28:09.055Z,99.90
2017-07-17T06:30:37.386Z,99.90
2017-07-17T06:33:04.991Z,99.90
2017-07-17T06:35:32.567Z,99.90
2017-07-17T06:38:00.995Z,99.90
2017-07-17T06:40:29.363Z,99.90
2017-07-17T06:42:56.995Z,99.90
2017-07-17T06:45:25.373Z,99.90
2017-07-17T06:47:53.715Z,99.90
2017-07-17T06:50:21.365Z,99.90
2017-07-17T06:52:49.011Z,99.90
2017-07-17T06:55:16.785Z,99.90
2017-07-17T06:57:44.378Z,99.90
2017-07-17T07:00:11.995Z,99.90
2017-07-17T07:02:39.592Z,99.90
2017-07-17T07:05:07.203Z,99.90
2017-07-17T07:07:35.542Z,99.90
2017-07-17T07:10:03.132Z,99.90
2017-07-17T07:12:31.511Z,99.90
2017-07-17T07:14:59.083Z,99.90
2017-07-17T07:17:28.532Z,99.90
2017-07-17T07:19:56.163Z,99.90
2017-07-17T07:22:24.527Z,99.90
2017-07-17T07:24:53.063Z,99.90
2017-07-17T07:27:20.672Z,99.90
2017-07-17T07:29:48.236Z,99.90
2017-07-17T07:32:16.600Z,99.90
2017-07-17T07:34:44.179Z,99.90
2017-07-17T07:37:11.726Z,99.90
2017-07-17T07:39:39.298Z,99.90
2017-07-17T07:42:06.912Z,99.90
2017-07-17T07:44:34.589Z,99.90
2017-07-17T07:47:02.135Z,99.90
2017-07-17T07:49:29.708Z,99.90
2017-07-17T07:51:57.399Z,99.90
2017-07-17T07:54:24.996Z,99.90
2017-07-17T07:56:53.351Z,99.90
2017-07-17T07:59:20.912Z,99.90
2017-07-17T08:01:48.455Z,99.90
2017-07-17T08:04:16.065Z,99.90
2017-07-17T08:06:43.675Z,99.90
2017-07-17T08:09:11.259Z,99.90
2017-07-17T08:11:38.992Z,99.90
2017-07-17T08:14:06.571Z,99.90
2017-07-17T08:16:34.147Z,99.90
2017-07-17T08:19:01.710Z,99.90
2017-07-17T08:21:29.276Z,99.90
2017-07-17T08:23:56.855Z,99.90
2017-07-17T08:26:25.256Z,99.90
2017-07-17T08:28:52.827Z,99.90
2017-07-17T08:31:20.424Z,99.90
2017-07-17T08:33:47.999Z,99.90
2017-07-17T08:36:15.558Z,99.90
2017-07-17T08:38:43.142Z,99.90
2017-07-17T08:41:10.758Z,99.90
2017-07-17T08:43:38.413Z,99.90
2017-07-17T08:46:06.031Z,99.90
2017-07-17T08:48:33.628Z,99.90
2017-07-17T08:51:01.224Z,99.90
2017-07-17T08:53:28.875Z,99.90
2017-07-17T08:55:56.431Z,99.90
2017-07-17T08:58:24.171Z,99.90
2017-07-17T09:00:51.737Z,99.90
2017-07-17T09:03:19.296Z,99.90
2017-07-17T09:05:46.901Z,99.90
2017-07-17T09:08:14.599Z,99.90
2017-07-17T09:10:42.993Z,99.90
2017-07-17T09:13:11.335Z,99.90
2017-07-17T09:15:38.966Z,99.90
2017-07-17T09:18:06.624Z,99.90
2017-07-17T09:20:34.402Z,99.90
2017-07-17T09:23:02.038Z,99.90
2017-07-17T09:25:29.588Z,99.90
2017-07-17T09:27:57.151Z,99.90
2017-07-17T09:30:24.730Z,99.90
2017-07-17T09:32:52.319Z,99.90
2017-07-17T09:35:21.676Z,99.90
2017-07-17T09:37:49.234Z,99.90
2017-07-17T09:40:16.836Z,99.90
2017-07-17T09:42:44.416Z,99.90
2017-07-17T09:45:12.769Z,99.90
2017-07-17T09:47:40.343Z,99.90
2017-07-17T09:50:08.361Z,99.90
2017-07-17T09:52:35.961Z,99.90
2017-07-17T09:55:03.565Z,99.90
2017-07-17T09:57:32.196Z,99.90
2017-07-17T09:59:59.796Z,99.90
2017-07-17T10:02:27.394Z,99.90
2017-07-17T10:04:54.987Z,99.90
2017-07-17T10:07:22.556Z,99.90
2017-07-17T10:09:50.128Z,99.90
2017-07-17T10:12:17.758Z,99.90
2017-07-17T10:14:45.322Z,99.90
2017-07-17T10:17:12.914Z,99.90
2017-07-17T10:19:40.494Z,99.90
2017-07-17T10:22:08.815Z,99.90
2017-07-17T10:24:37.520Z,99.90
2017-07-17T10:27:05.098Z,99.90
2017-07-17T10:29:32.657Z,99.90
2017-07-17T10:32:00.232Z,99.90
2017-07-17T10:34:27.870Z,99.90
2017-07-17T10:36:55.524Z,99.90
2017-07-17T10:39:23.140Z,99.90
2017-07-17T10:41:50.790Z,99.90
2017-07-17T10:44:18.369Z,99.90
2017-07-17T10:46:46.702Z,99.90
2017-07-17T10:49:14.559Z,99.90
2017-07-17T10:51:42.129Z,99.90
2017-07-17T10:54:09.774Z,98.80
2017-07-17T10:56:37.467Z,97.10
2017-07-17T10:59:05.030Z,97.90
2017-07-17T11:01:32.606Z,96.30
2017-07-17T11:04:00.208Z,97.30
2017-07-17T11:06:28.571Z,95.10
2017-07-17T11:08:56.289Z,95.00
2017-07-17T11:11:23.939Z,94.50
2017-07-17T11:13:51.494Z,94.30
2017-07-17T11:16:19.081Z,93.40
2017-07-17T11:18:46.651Z,94.80
2017-07-17T11:21:14.211Z,94.00
2017-07-17T11:23:41.782Z,93.00
2017-07-17T11:26:09.392Z,93.40
2017-07-17T11:28:37.746Z,93.60
2017-07-17T11:31:05.333Z,93.50
2017-07-17T11:33:33.675Z,94.00
2017-07-17T11:36:01.223Z,94.00
2017-07-17T11:38:28.798Z,93.40
2017-07-17T11:40:56.408Z,93.00
2017-07-17T11:43:23.936Z,92.70
2017-07-17T11:45:51.531Z,93.00
2017-07-17T11:58:25.660Z,93.40
2017-07-17T12:00:53.240Z,91.70
2017-07-17T12:03:20.822Z,91.30
2017-07-17T12:05:48.386Z,91.30
2017-07-17T12:08:15.965Z,90.50
2017-07-17T12:10:44.320Z,91.10
2017-07-17T12:13:11.949Z,91.10
2017-07-17T12:15:40.332Z,87.30
2017-07-17T12:18:07.937Z,87.30
2017-07-17T12:20:36.296Z,87.40
2017-07-17T12:23:03.855Z,87.40
2017-07-17T12:25:31.427Z,86.20
2017-07-17T12:27:59.011Z,86.90
2017-07-17T12:30:26.628Z,88.40
2017-07-17T12:32:54.186Z,88.80
2017-07-17T12:35:21.745Z,89.80
2017-07-17T12:37:49.500Z,89.10
2017-07-17T12:40:17.092Z,87.70
2017-07-17T12:42:44.656Z,86.10
2017-07-17T12:45:12.243Z,87.10
2017-07-17T12:47:39.950Z,90.00
2017-07-17T12:50:07.531Z,90.20
2017-07-17T12:52:35.139Z,90.30
2017-07-17T12:55:02.863Z,91.10
2017-07-17T12:57:30.451Z,85.10
2017-07-17T12:59:59.688Z,83.50
2017-07-17T13:02:28.104Z,83.70
2017-07-17T13:04:55.684Z,83.70
2017-07-17T13:07:24.857Z,81.90
2017-07-17T13:09:52.463Z,83.20
2017-07-17T13:12:20.076Z,81.90
2017-07-17T13:14:47.681Z,82.90
2017-07-17T13:17:15.294Z,82.60
2017-07-17T13:19:43.043Z,79.80
2017-07-17T13:22:10.595Z,75.30
2017-07-17T13:24:38.218Z,75.30
2017-07-17T13:27:05.785Z,75.50
2017-07-17T13:29:33.446Z,78.20
2017-07-17T13:32:01.086Z,70.20
2017-07-17T13:34:28.676Z,72.90
2017-07-17T13:36:56.271Z,74.20
2017-07-17T13:39:23.867Z,68.60
2017-07-17T13:41:52.220Z,66.90
2017-07-17T13:44:19.890Z,66.60
2017-07-17T13:46:48.234Z,68.20
2017-07-17T13:49:15.804Z,68.10
2017-07-17T13:51:43.359Z,64.50
2017-07-17T13:54:11.008Z,64.20
2017-07-17T13:56:38.655Z,64.20
2017-07-17T13:59:06.275Z,63.30
2017-07-17T14:01:33.850Z,59.00
2017-07-17T14:04:01.487Z,57.80
2017-07-17T14:06:29.032Z,59.20
2017-07-17T14:08:56.593Z,58.20
2017-07-17T14:11:24.187Z,57.70
2017-07-17T14:13:51.786Z,61.60
2017-07-17T14:16:21.079Z,63.20
2017-07-17T14:18:48.662Z,62.70
2017-07-17T14:21:16.267Z,59.60
2017-07-17T14:23:43.866Z,59.10
2017-07-17T14:26:11.435Z,57.90
2017-07-17T14:28:39.782Z,59.60
2017-07-17T14:31:07.370Z,59.50
2017-07-17T14:33:34.960Z,63.60
2017-07-17T14:36:03.071Z,63.80
2017-07-17T14:38:30.734Z,68.60
2017-07-17T14:40:58.566Z,67.10
2017-07-17T14:43:26.652Z,71.70
2017-07-17T14:45:55.101Z,71.20
2017-07-17T14:48:22.812Z,71.10
2017-07-17T14:50:50.410Z,72.50
2017-07-17T14:53:18.057Z,66.50
2017-07-17T14:55:45.607Z,65.50
2017-07-17T14:58:13.263Z,65.10
2017-07-17T15:00:40.867Z,65.50
2017-07-17T15:03:08.707Z,63.00
2017-07-17T15:05:37.465Z,61.70
2017-07-17T15:08:05.942Z,60.00
2017-07-17T15:10:33.775Z,59.90
2017-07-17T15:13:01.379Z,61.70
2017-07-17T15:15:29.900Z,61.50
2017-07-17T15:17:57.599Z,61.30
2017-07-17T15:20:25.312Z,64.00
2017-07-17T15:22:53.656Z,65.00
2017-07-17T15:25:21.333Z,64.90
2017-07-17T15:27:48.961Z,66.80
2017-07-17T15:30:16.673Z,67.10
2017-07-17T15:32:44.762Z,65.40
2017-07-17T15:35:13.258Z,68.20
2017-07-17T15:37:41.856Z,68.20
2017-07-17T15:40:09.588Z,64.90
2017-07-17T15:42:37.485Z,65.10
2017-07-17T15:45:05.071Z,62.20
2017-07-17T15:47:32.685Z,65.30
2017-07-17T15:50:00.257Z,62.70
2017-07-17T15:52:27.836Z,61.60
2017-07-17T15:54:55.413Z,62.00
2017-07-17T15:57:22.973Z,60.50
2017-07-17T15:59:50.560Z,59.80
2017-07-17T16:02:18.173Z,60.60
2017-07-17T16:04:46.521Z,58.80
2017-07-17T16:07:14.130Z,58.60
2017-07-17T16:09:41.683Z,58.20
2017-07-17T16:12:10.036Z,58.40
2017-07-17T16:14:37.601Z,58.40
2017-07-17T16:17:05.200Z,57.90
2017-07-17T16:19:32.757Z,55.60
2017-07-17T16:22:00.352Z,57.40
2017-07-17T16:24:27.903Z,55.10
2017-07-17T16:26:55.487Z,56.00
2017-07-17T16:29:23.098Z,57.20
2017-07-17T16:31:51.478Z,57.20
2017-07-17T16:34:19.806Z,57.50
2017-07-17T16:36:47.356Z,57.50
2017-07-17T16:39:14.921Z,56.90
2017-07-17T16:41:42.478Z,57.70
2017-07-17T16:44:10.044Z,57.20
2017-07-17T16:46:37.614Z,57.80
2017-07-17T16:49:05.176Z,55.10
2017-07-17T16:51:32.759Z,58.10
2017-07-17T16:54:01.144Z,58.10
2017-07-17T16:56:29.506Z,58.90
2017-07-17T16:58:57.149Z,58.90
2017-07-17T17:01:24.777Z,57.20
2017-07-17T17:03:52.374Z,56.50
2017-07-17T17:06:19.962Z,56.80
2017-07-17T17:08:47.530Z,56.50
2017-07-17T17:11:15.178Z,56.80
2017-07-17T17:13:42.810Z,58.80
2017-07-17T17:16:11.345Z,57.20
2017-07-17T17:18:38.926Z,57.20
2017-07-17T17:21:06.485Z,57.40
2017-07-17T17:23:34.075Z,57.50
2017-07-17T17:26:01.626Z,56.80
2017-07-17T17:28:29.968Z,58.70
2017-07-17T17:30:57.579Z,58.60
2017-07-17T17:33:25.912Z,58.60
2017-07-17T17:35:53.507Z,58.60
2017-07-17T17:38:21.069Z,58.90
2017-07-17T17:40:48.748Z,59.80
2017-07-17T17:43:16.354Z,60.30
2017-07-17T17:45:43.908Z,59.50
2017-07-17T17:48:11.488Z,62.20
2017-07-17T17:50:39.090Z,61.70
2017-07-17T17:53:06.660Z,62.00
2017-07-17T17:55:34.410Z,62.80
2017-07-17T17:58:01.995Z,62.10
2017-07-17T18:00:30.314Z,62.30
2017-07-17T18:02:57.908Z,62.30
2017-07-17T18:05:25.486Z,62.90
2017-07-17T18:07:53.061Z,64.00
2017-07-17T18:10:20.656Z,64.30
2017-07-17T18:12:48.266Z,65.20
2017-07-17T18:15:15.841Z,66.50
2017-07-17T18:17:44.283Z,66.80
2017-07-17T18:20:11.938Z,66.60
2017-07-17T18:22:39.506Z,67.10
2017-07-17T18:25:08.018Z,67.40
2017-07-17T18:27:35.563Z,67.30
2017-07-17T18:30:03.149Z,68.00
2017-07-17T18:32:30.750Z,68.40
2017-07-17T18:34:58.311Z,67.90
2017-07-17T18:37:25.899Z,67.70
2017-07-17T18:39:53.525Z,68.50
2017-07-17T18:42:21.896Z,68.10
2017-07-17T18:44:50.323Z,68.00
2017-07-17T18:47:17.894Z,68.00
2017-07-17T18:49:45.451Z,68.60
2017-07-17T18:52:13.034Z,69.10
2017-07-17T18:54:41.941Z,68.20
2017-07-17T18:57:09.532Z,68.50
2017-07-17T18:59:38.012Z,69.20
2017-07-17T19:02:06.338Z,68.50
2017-07-17T19:04:33.979Z,68.00
2017-07-17T19:07:01.608Z,68.80
2017-07-17T19:09:29.199Z,69.10
2017-07-17T19:11:57.623Z,70.40
2017-07-17T19:14:25.228Z,70.40
2017-07-17T19:16:53.575Z,71.40
2017-07-17T19:19:21.165Z,71.20
2017-07-17T19:21:48.754Z,73.40
2017-07-17T19:24:16.614Z,74.40
2017-07-17T19:26:45.098Z,75.10
2017-07-17T19:29:13.476Z,76.30
2017-07-17T19:31:42.061Z,77.10
2017-07-17T19:34:10.453Z,77.40
2017-07-17T19:36:38.083Z,77.30
2017-07-17T19:39:05.695Z,82.50
2017-07-17T19:41:33.434Z,80.30
2017-07-17T19:44:01.994Z,82.00
2017-07-17T19:46:29.588Z,81.50
2017-07-17T19:48:58.025Z,83.30
2017-07-17T19:51:25.699Z,83.20
2017-07-17T19:53:53.446Z,85.50
2017-07-17T19:56:21.117Z,87.00
2017-07-17T19:58:48.710Z,88.90
2017-07-17T20:01:17.105Z,90.70
2017-07-17T20:03:45.570Z,90.60
2017-07-17T20:06:13.259Z,90.60
2017-07-17T20:08:41.691Z,92.20
2017-07-17T20:11:09.395Z,92.20
2017-07-17T20:13:37.067Z,90.80
2017-07-17T20:16:05.486Z,90.80
2017-07-17T20:18:33.064Z,90.80
2017-07-17T20:21:00.793Z,89.50
2017-07-17T20:23:28.429Z,88.20
2017-07-17T20:25:56.334Z,87.20
2017-07-17T20:28:23.927Z,86.90
2017-07-17T20:30:51.574Z,88.00
2017-07-17T20:33:19.155Z,88.40
2017-07-17T20:35:46.714Z,88.20
2017-07-17T20:38:14.508Z,88.20
2017-07-17T20:40:42.077Z,85.70
2017-07-17T20:43:09.875Z,86.40
2017-07-17T20:45:37.813Z,87.30
2017-07-17T20:48:05.436Z,87.00
2017-07-17T20:50:33.017Z,85.50
2017-07-17T20:53:00.590Z,88.10
2017-07-17T20:55:28.146Z,87.20
2017-07-17T20:57:55.699Z,89.00
2017-07-17T21:00:23.270Z,89.60
2017-07-17T21:02:50.883Z,89.30
2017-07-17T21:05:19.218Z,89.50
2017-07-17T21:07:46.917Z,89.60
2017-07-17T21:10:15.256Z,91.10
2017-07-17T21:12:42.833Z,91.00
2017-07-17T21:15:10.405Z,90.30
2017-07-17T21:17:37.967Z,90.00
2017-07-17T21:20:05.831Z,90.60
2017-07-17T21:22:34.180Z,91.20
2017-07-17T21:25:01.775Z,91.20
2017-07-17T21:27:40.010Z,92.50
2017-07-17T21:30:09.377Z,92.00
2017-07-17T21:32:37.233Z,92.00
2017-07-17T21:35:05.382Z,92.30
2017-07-17T21:37:36.042Z,91.80
2017-07-17T21:40:06.185Z,92.90
2017-07-17T21:42:34.739Z,92.90
2017-07-17T21:45:02.339Z,93.10
2017-07-17T21:47:29.902Z,94.10
2017-07-17T21:49:58.346Z,94.40
2017-07-17T21:52:25.920Z,94.50
2017-07-17T21:54:54.266Z,96.20
2017-07-17T21:57:21.844Z,96.20
2017-07-17T21:59:49.402Z,95.90
2017-07-17T22:02:16.995Z,97.30
2017-07-17T22:04:44.575Z,97.90
2017-07-17T22:07:12.249Z,96.70
2017-07-17T22:09:39.824Z,97.10
2017-07-17T22:12:07.374Z,96.70
2017-07-17T22:14:34.958Z,98.10
2017-07-17T22:17:02.523Z,97.20
2017-07-17T22:19:30.131Z,97.30
2017-07-17T22:21:57.706Z,98.30
2017-07-17T22:24:25.265Z,98.20
2017-07-17T22:26:52.840Z,98.10
2017-07-17T22:29:20.405Z,99.40
2017-07-17T22:31:48.011Z,99.00
2017-07-17T22:34:15.586Z,98.90
2017-07-17T22:36:43.334Z,99.40
2017-07-17T22:39:10.953Z,99.30
2017-07-17T22:41:38.515Z,99.90
2017-07-17T22:44:06.156Z,99.90
2017-07-17T22:46:33.744Z,99.50
2017-07-17T22:49:01.378Z,99.90
2017-07-17T22:51:29.750Z,99.90
2017-07-17T22:53:58.087Z,99.90
2017-07-17T22:56:25.676Z,99.90
2017-07-17T22:58:53.272Z,99.90
2017-07-17T23:01:20.827Z,99.90
2017-07-17T23:03:49.200Z,99.90
2017-07-17T23:06:17.601Z,99.90
2017-07-17T23:08:45.174Z,99.90
2017-07-17T23:11:12.746Z,99.90
2017-07-17T23:13:40.419Z,99.90
2017-07-17T23:16:08.009Z,99.90
2017-07-17T23:18:35.599Z,99.90
2017-07-17T23:21:03.930Z,99.90
2017-07-17T23:23:31.535Z,99.90
2017-07-17T23:25:59.857Z,99.90
2017-07-17T23:28:27.452Z,99.90
2017-07-17T23:30:55.033Z,99.90
2017-07-17T23:33:22.591Z,99.90
2017-07-17T23:35:50.182Z,99.90
2017-07-17T23:38:17.738Z,99.90
2017-07-17T23:40:46.067Z,99.90
2017-07-17T23:43:13.678Z,99.90
2017-07-17T23:45:42.029Z,99.90
2017-07-17T23:48:09.585Z,99.90
2017-07-17T23:50:37.179Z,99.90
2017-07-17T23:53:05.500Z,99.90
2017-07-17T23:55:33.056Z,99.90
2017-07-17T23:58:00.662Z,99.90
